Time;durP1;ratioP1;P1;durP2;ratioP2;P2;SDS_P1;SDS_P2;PMS_P1;PMS_P2;Temp;Humidity;BMP_temperature;BMP_pressure;BME280_temperature;BME280_humidity;BME280_pressure;Samples;Min_cycle;Max_cycle;Signal;HPM_P1;HPM_P2
2022/03/15 00:01:49;;;;;;;8.40;4.50;;;;;;;-2.87;69.18;100500.57;104749;1273;61080;-30
2022/03/15 00:04:20;;;;;;;12.50;5.40;;;;;;;-3.13;69.56;100495.38;104781;1273;61090;-31
2022/03/15 00:06:50;;;;;;;8.60;4.90;;;;;;;-3.38;70.30;100496.75;104761;1274;75515;-30
2022/03/15 00:09:19;;;;;;;11.40;5.10;;;;;;;-3.62;70.57;100495.23;104774;1273;76087;-30
2022/03/15 00:12:03;;;;;;;8.70;4.70;;;;;;;-3.84;70.70;100495.58;104796;1274;74148;-30
2022/03/15 00:14:32;;;;;;;10.10;5.30;;;;;;;-3.99;70.85;100491.64;104638;1275;61135;-30
2022/03/15 00:17:04;;;;;;;11.30;6.20;;;;;;;-4.12;71.16;100487.21;104806;1273;61008;-30
2022/03/15 00:19:34;;;;;;;8.30;5.20;;;;;;;-4.23;70.84;100484.14;104873;1273;75532;-30
2022/03/15 00:22:05;;;;;;;11.40;5.80;;;;;;;-4.32;71.09;100484.63;105021;1273;76024;-30
2022/03/15 00:24:35;;;;;;;11.00;6.00;;;;;;;-4.41;71.34;100482.73;105082;1273;74387;-31
2022/03/15 00:27:04;;;;;;;8.60;4.10;;;;;;;-4.47;71.47;100482.05;104924;1273;62073;-30
2022/03/15 00:29:35;;;;;;;11.50;6.50;;;;;;;-3.95;72.29;100479.08;104820;1274;62059;-30
2022/03/15 00:32:07;;;;;;;10.20;5.40;;;;;;;-2.86;70.79;100484.58;104752;1274;75640;-30
2022/03/15 00:34:36;;;;;;;16.00;7.40;;;;;;;-2.43;69.43;100485.09;104630;1277;76085;-29
2022/03/15 00:37:06;;;;;;;18.10;8.10;;;;;;;-2.51;69.14;100483.43;104742;1273;75063;-30
2022/03/15 00:39:41;;;;;;;14.20;6.80;;;;;;;-2.79;69.39;100483.89;104735;1274;61155;-29
2022/03/15 00:42:10;;;;;;;11.10;4.90;;;;;;;-3.09;69.78;100484.31;104843;1274;61172;-29
2022/03/15 00:44:40;;;;;;;12.50;5.70;;;;;;;-3.34;69.86;100476.38;105001;1271;75649;-31
2022/03/15 00:47:10;;;;;;;11.00;6.00;;;;;;;-3.56;70.02;100477.92;104711;1271;75988;-30
2022/03/15 00:49:45;;;;;;;11.10;6.50;;;;;;;-3.79;70.82;100474.19;104661;1271;73605;-30
2022/03/15 00:52:15;;;;;;;13.00;5.70;;;;;;;-4.02;71.08;100474.33;104839;1271;61700;-30
2022/03/15 00:54:44;;;;;;;15.80;8.20;;;;;;;-4.25;71.47;100474.30;104842;1271;62321;-29
2022/03/15 00:57:13;;;;;;;13.70;8.00;;;;;;;-4.46;71.92;100473.06;104736;1271;75660;-29
2022/03/15 00:59:42;;;;;;;16.60;8.30;;;;;;;-4.68;72.27;100471.27;104661;1274;75783;-29
2022/03/15 01:02:12;;;;;;;13.40;7.90;;;;;;;-4.86;71.80;100469.86;104727;1274;74146;-30
2022/03/15 01:04:43;;;;;;;18.00;7.50;;;;;;;-5.02;73.03;100467.74;104740;1274;61185;-29
2022/03/15 01:07:16;;;;;;;13.70;5.70;;;;;;;-5.16;74.37;100463.94;104855;1271;61936;-29
2022/03/15 01:09:46;;;;;;;12.10;6.20;;;;;;;-4.68;75.02;100463.65;105128;1271;75564;-29
2022/03/15 01:12:16;;;;;;;13.80;6.40;;;;;;;-3.66;72.54;100466.54;105149;1271;75699;-30
2022/03/15 01:14:53;;;;;;;14.00;7.20;;;;;;;-3.28;71.49;100463.79;105130;1271;74824;-30
2022/03/15 01:17:24;;;;;;;12.60;7.60;;;;;;;-3.38;71.29;100461.77;105092;1274;61025;-30
2022/03/15 01:19:53;;;;;;;11.60;6.40;;;;;;;-3.61;71.11;100454.15;105120;1274;61151;-30
2022/03/15 01:24:25;;;;;;;10.30;3.60;;;;;;;-4.09;71.50;100449.89;101846;1309;600230;-30
2022/03/15 01:26:56;;;;;;;7.00;4.00;;;;;;;-4.33;72.18;100451.20;104481;1284;61204;-30
2022/03/15 01:29:28;;;;;;;9.80;4.60;;;;;;;-4.48;72.62;100452.88;104317;1284;61988;-30
2022/03/15 01:32:00;;;;;;;;;;;;;;;-4.63;73.14;100451.30;104435;1284;73934;-30
2022/03/15 01:34:29;;;;;;;9.00;4.50;;;;;;;-4.77;73.49;100446.67;103894;1287;74687;-30
2022/03/15 01:36:59;;;;;;;9.60;5.00;;;;;;;-4.92;74.14;100445.94;104106;1284;249493;-30
2022/03/15 01:39:28;;;;;;;10.00;5.60;;;;;;;-5.10;74.12;100441.96;104340;1281;62027;-30
2022/03/15 01:41:59;;;;;;;10.90;5.90;;;;;;;-5.30;74.23;100439.48;104508;1281;61799;-30
2022/03/15 01:44:33;;;;;;;8.90;4.90;;;;;;;-5.52;74.48;100437.65;104474;1281;72487;-30
2022/03/15 01:47:03;;;;;;;9.00;4.90;;;;;;;-5.66;75.34;100442.28;104354;1284;76001;-30
2022/03/15 01:49:33;;;;;;;11.40;6.00;;;;;;;-5.22;76.08;100439.67;104311;1281;73415;-30
2022/03/15 01:52:03;;;;;;;12.60;7.10;;;;;;;-4.14;75.11;100438.00;103907;1282;61103;-30
2022/03/15 01:54:34;;;;;;;9.00;5.70;;;;;;;-3.64;73.35;100440.24;104263;1281;61886;-30
2022/03/15 01:57:07;;;;;;;14.10;6.50;;;;;;;-3.63;72.96;100437.17;104326;1281;74755;-29
2022/03/15 01:59:38;;;;;;;13.10;7.10;;;;;;;-3.74;72.66;100436.52;103943;1281;75983;-29
2022/03/15 02:02:07;;;;;;;10.60;4.50;;;;;;;-3.93;73.27;100437.35;103780;1281;74476;-29
2022/03/15 02:04:43;;;;;;;7.80;3.80;;;;;;;-4.13;73.13;100440.05;103890;1281;61265;-29
2022/03/15 02:07:14;;;;;;;7.00;3.80;;;;;;;-4.40;72.74;100443.05;103852;1284;61113;-29
2022/03/15 02:09:53;;;;;;;6.70;4.20;;;;;;;-4.67;73.20;100437.89;104177;1281;74790;-29
2022/03/15 02:12:30;;;;;;;8.60;4.10;;;;;;;-4.89;73.78;100437.14;104184;1281;77154;-29
2022/03/15 02:15:03;;;;;;;12.60;4.40;;;;;;;-5.07;74.12;100432.15;104219;1281;75331;-30
2022/03/15 02:17:33;;;;;;;8.30;4.80;;;;;;;-5.25;74.28;100432.05;104068;1284;62012;-29
2022/03/15 02:20:09;;;;;;;8.70;4.40;;;;;;;-5.42;74.40;100429.08;103734;1282;62048;-31
2022/03/15 02:22:38;;;;;;;8.10;4.30;;;;;;;-5.59;75.65;100426.95;104111;1281;74790;-29
2022/03/15 02:25:08;;;;;;;9.00;4.90;;;;;;;-5.69;75.28;100430.24;104217;1281;75880;-28
2022/03/15 02:27:37;;;;;;;9.60;3.60;;;;;;;-5.77;75.94;100430.38;104199;1281;74180;-29
2022/03/15 02:30:07;;;;;;;6.50;3.50;;;;;;;-5.26;76.83;100427.13;104241;1281;63570;-28
2022/03/15 02:32:42;;;;;;;9.60;3.70;;;;;;;-4.16;73.84;100433.10;103749;1287;61887;-29
2022/03/15 02:35:11;;;;;;;9.20;5.30;;;;;;;-3.69;72.44;100431.07;104191;1281;74752;-29
2022/03/15 02:37:44;;;;;;;12.20;5.80;;;;;;;-3.71;72.14;100431.76;104117;1281;75072;-29
2022/03/15 02:40:14;;;;;;;10.70;5.90;;;;;;;-3.89;71.37;100431.23;104077;1281;75048;-29
2022/03/15 02:42:53;;;;;;;11.30;6.20;;;;;;;-4.20;70.93;100430.21;104174;1281;61054;-29
2022/03/15 02:45:22;;;;;;;8.10;4.70;;;;;;;-4.51;71.10;100429.81;104221;1281;61806;-28
2022/03/15 02:47:52;;;;;;;10.30;4.50;;;;;;;-4.82;71.77;100427.16;104194;1281;74753;-29
2022/03/15 02:50:24;;;;;;;10.90;4.80;;;;;;;-5.19;72.32;100429.70;104079;1281;75585;-28
2022/03/15 02:52:54;;;;;;;7.10;4.20;;;;;;;-5.52;73.49;100426.14;104123;1281;73452;-31
2022/03/15 02:55:24;;;;;;;6.30;4.00;;;;;;;-5.70;75.14;100424.65;104043;1284;61951;-28
2022/03/15 02:57:55;;;;;;;8.10;5.20;;;;;;;-5.82;75.05;100429.83;104209;1281;62309;-28
2022/03/15 03:00:27;;;;;;;15.10;5.50;;;;;;;-5.93;75.34;100427.36;104031;1283;73736;-28
2022/03/15 03:02:59;;;;;;;8.60;4.80;;;;;;;-6.02;76.61;100424.60;104085;1281;75020;-29
2022/03/15 03:05:30;;;;;;;8.80;5.30;;;;;;;-6.12;75.69;100426.38;104188;1281;73343;-30
2022/03/15 03:08:04;;;;;;;14.40;6.20;;;;;;;-6.28;74.91;100425.91;103761;1284;61241;-30
2022/03/15 03:10:33;;;;;;;;;;;;;;;-6.35;76.18;100427.52;104100;1281;61786;-28
2022/03/15 03:13:02;;;;;;;6.00;2.50;;;;;;;-5.64;75.80;100426.04;104218;1281;73284;-30
2022/03/15 03:15:34;;;;;;;10.70;4.10;;;;;;;-4.44;74.24;100426.77;104209;1281;75961;-29
2022/03/15 03:18:04;;;;;;;15.10;6.50;;;;;;;-3.99;72.29;100425.65;104117;1284;73088;-29
2022/03/15 03:20:37;;;;;;;22.10;11.00;;;;;;;-4.01;72.01;100422.61;104085;1281;61315;-29
2022/03/15 03:23:07;;;;;;;15.10;8.30;;;;;;;-4.20;72.47;100420.36;104215;1281;61872;-29
2022/03/15 03:25:36;;;;;;;10.30;5.90;;;;;;;-4.50;73.09;100420.15;103857;1281;74652;-30
2022/03/15 03:28:08;;;;;;;10.10;5.10;;;;;;;-4.75;72.04;100420.08;104214;1281;74981;-30
2022/03/15 03:30:39;;;;;;;7.90;4.30;;;;;;;-5.05;71.98;100410.30;103911;1281;74203;-29
2022/03/15 03:33:08;;;;;;;19.30;8.40;;;;;;;-5.43;73.34;100409.60;104247;1281;62182;-30
2022/03/15 03:35:38;;;;;;;23.20;9.70;;;;;;;-5.74;74.06;100410.41;104165;1281;62789;-30
2022/03/15 03:38:08;;;;;;;25.80;12.90;;;;;;;-5.94;75.45;100410.44;104221;1281;74726;-29
2022/03/15 03:40:37;;;;;;;33.60;14.20;;;;;;;-6.09;74.88;100405.45;104108;1284;75981;-28
2022/03/15 03:43:07;;;;;;;26.70;12.60;;;;;;;-6.30;74.88;100407.79;104212;1281;74500;-28
2022/03/15 03:45:36;;;;;;;18.10;9.50;;;;;;;-6.49;75.97;100406.92;104071;1282;62239;-29
2022/03/15 03:48:06;;;;;;;29.30;12.90;;;;;;;-6.00;76.24;100402.28;104131;1281;61013;-28
2022/03/15 03:50:36;;;;;;;50.70;23.00;;;;;;;-5.23;74.89;100405.66;104154;1284;74862;-28
2022/03/15 03:53:05;;;;;;;37.30;18.50;;;;;;;-5.05;73.83;100405.39;104138;1281;75900;-29
2022/03/15 03:55:36;;;;;;;30.70;15.40;;;;;;;-5.16;74.12;100402.80;104256;1278;72439;-29
2022/03/15 03:58:05;;;;;;;25.70;12.60;;;;;;;-5.36;74.67;100404.90;104248;1281;61033;-29
2022/03/15 04:00:35;;;;;;;19.40;8.80;;;;;;;-5.55;75.97;100401.08;104564;1277;61046;-28
2022/03/15 04:03:05;;;;;;;24.30;9.60;;;;;;;-5.69;76.09;100394.04;104237;1278;73573;-28
2022/03/15 04:05:38;;;;;;;24.10;11.60;;;;;;;-5.88;75.04;100396.96;104218;1278;74978;-29
2022/03/15 04:08:07;;;;;;;25.00;10.60;;;;;;;-6.09;74.83;100394.95;104230;1281;73385;-28
2022/03/15 04:10:37;;;;;;;32.30;12.00;;;;;;;-6.31;75.00;100392.06;104359;1277;61166;-30
2022/03/15 04:13:07;;;;;;;24.00;10.80;;;;;;;-6.53;75.50;100389.15;104361;1277;61087;-28
2022/03/15 04:15:54;;;;;;;23.10;10.30;;;;;;;-6.80;76.00;100384.98;104233;1281;72878;-29
2022/03/15 04:18:25;;;;;;;19.40;10.40;;;;;;;-6.95;76.37;100386.67;104365;1278;75752;-28
2022/03/15 04:20:54;;;;;;;17.50;8.20;;;;;;;-6.99;76.75;100384.77;104376;1280;74640;-28
2022/03/15 04:23:24;;;;;;;17.10;7.80;;;;;;;-6.38;77.29;100382.68;104474;1277;63557;-28
2022/03/15 04:25:54;;;;;;;23.00;9.60;;;;;;;-5.30;76.24;100384.09;104387;1277;62098;-28
2022/03/15 04:28:24;;;;;;;21.30;9.10;;;;;;;-4.90;75.06;100383.77;104243;1281;73527;-29
2022/03/15 04:30:58;;;;;;;23.50;10.30;;;;;;;-4.90;75.22;100381.91;104351;1278;76065;-29
2022/03/15 04:33:37;;;;;;;23.20;11.10;;;;;;;-4.99;75.93;100381.36;104305;1278;74356;-29
2022/03/15 04:36:07;;;;;;;20.60;9.80;;;;;;;-5.16;75.57;100384.00;104322;1278;61064;-28
2022/03/15 04:38:37;;;;;;;23.60;9.70;;;;;;;-5.34;75.69;100376.30;104273;1278;62012;-28
2022/03/15 04:41:06;;;;;;;25.30;10.70;;;;;;;-5.48;76.11;100373.52;104675;1277;72720;-29
2022/03/15 04:43:35;;;;;;;22.50;10.60;;;;;;;-5.60;75.95;100371.60;104457;1278;75799;-29
2022/03/15 04:46:06;;;;;;;22.80;12.60;;;;;;;-5.67;75.97;100370.20;104281;1281;74260;-29
2022/03/15 04:48:35;;;;;;;26.10;12.00;;;;;;;-5.71;75.66;100373.21;104363;1278;61859;-29
2022/03/15 04:51:10;;;;;;;22.60;11.70;;;;;;;-5.72;76.80;100372.69;104407;1277;61975;-29
2022/03/15 04:53:44;;;;;;;14.80;6.40;;;;;;;-5.67;76.41;100372.05;104604;1277;74738;-29
2022/03/15 04:56:14;;;;;;;21.20;10.80;;;;;;;-5.04;75.49;100374.71;104650;1277;75387;-29
2022/03/15 04:58:44;;;;;;;26.80;13.40;;;;;;;-3.87;73.67;100374.39;104329;1278;74353;-29
2022/03/15 05:01:14;;;;;;;230.60;100.70;;;;;;;-3.31;71.89;100378.70;104398;1277;61887;-28
2022/03/15 05:03:51;;;;;;;63.30;25.20;;;;;;;-3.15;71.37;100379.50;104597;1277;62258;-29
2022/03/15 05:06:20;;;;;;;28.30;14.40;;;;;;;-3.16;70.57;100377.98;104524;1281;74947;-28
2022/03/15 05:08:49;;;;;;;24.40;12.20;;;;;;;-3.25;69.77;100379.20;104460;1277;76379;-29
2022/03/15 05:11:43;;;;;;;21.30;11.20;;;;;;;-3.35;71.45;100381.27;104337;1277;74500;-32
2022/03/15 05:14:17;;;;;;;30.10;14.30;;;;;;;-3.34;71.33;100379.05;104201;1281;60996;-29
2022/03/15 05:16:46;;;;;;;27.60;14.40;;;;;;;-3.32;71.08;100378.20;104396;1277;61181;-29
2022/03/15 05:19:19;;;;;;;;;;;;;;;-3.34;71.21;100380.75;104277;1281;74595;-29
2022/03/15 05:21:50;;;;;;;24.80;11.80;;;;;;;-3.39;71.46;100378.21;104333;1281;76011;-30
2022/03/15 05:24:20;;;;;;;26.70;14.50;;;;;;;-3.41;71.58;100380.77;104227;1280;74645;-31
2022/03/15 05:26:51;;;;;;;28.80;14.00;;;;;;;-3.40;71.76;100378.05;104257;1281;61250;-31
2022/03/15 05:29:20;;;;;;;30.60;15.30;;;;;;;-3.36;71.86;100379.91;104248;1280;62045;-30
2022/03/15 05:31:50;;;;;;;29.80;16.40;;;;;;;-3.32;72.10;100380.74;104264;1281;74734;-28
2022/03/15 05:34:20;;;;;;;29.00;15.50;;;;;;;-3.30;72.07;100378.35;104453;1280;74810;-30
2022/03/15 05:36:49;;;;;;;18.80;8.60;;;;;;;-3.22;72.70;100376.29;104191;1280;73545;-29
2022/03/15 05:39:18;;;;;;;32.70;12.70;;;;;;;-2.48;72.57;100375.23;104222;1281;63376;-29
2022/03/15 05:41:48;;;;;;;33.40;15.30;;;;;;;-1.32;71.32;100381.04;104253;1281;61800;-28
2022/03/15 05:44:17;;;;;;;25.50;12.20;;;;;;;-0.79;69.25;100380.25;104266;1281;75676;-29
2022/03/15 05:46:47;;;;;;;18.30;7.30;;;;;;;-0.80;68.59;100382.48;104041;1281;73987;-29
2022/03/15 05:49:16;;;;;;;16.80;8.10;;;;;;;-0.92;69.54;100381.60;104086;1281;73980;-29
2022/03/15 05:51:46;;;;;;;20.50;10.40;;;;;;;-1.00;69.47;100382.39;104261;1281;61159;-29
2022/03/15 05:54:18;;;;;;;15.80;9.00;;;;;;;-1.08;70.12;100383.33;104220;1281;61680;-29
2022/03/15 05:56:47;;;;;;;21.00;10.70;;;;;;;-1.09;70.31;100383.51;104223;1280;75532;-29
2022/03/15 05:59:16;;;;;;;19.90;10.50;;;;;;;-1.11;70.49;100383.53;104191;1280;76029;-29
2022/03/15 06:01:46;;;;;;;15.80;9.40;;;;;;;-1.05;70.67;100385.16;104532;1281;74387;-29
2022/03/15 06:04:15;;;;;;;20.80;11.60;;;;;;;-0.93;70.75;100381.96;104451;1281;61048;-29
2022/03/15 06:06:45;;;;;;;21.10;9.80;;;;;;;-0.84;71.21;100382.86;104587;1281;61096;-29
2022/03/15 06:09:14;;;;;;;16.40;8.50;;;;;;;-0.83;72.31;100382.68;104358;1281;74589;-29
2022/03/15 06:11:44;;;;;;;17.70;9.50;;;;;;;-0.82;72.15;100382.83;104271;1281;76099;-28
2022/03/15 06:14:14;;;;;;;15.80;9.30;;;;;;;-0.81;72.89;100382.66;104259;1280;74461;-29
2022/03/15 06:16:43;;;;;;;11.30;5.50;;;;;;;-0.75;73.78;100388.02;104210;1280;62451;-29
2022/03/15 06:19:33;;;;;;;12.40;6.60;;;;;;;0.09;73.28;100388.83;104226;1280;61325;-29
2022/03/15 06:22:22;;;;;;;18.60;9.20;;;;;;;1.00;70.95;100394.17;104583;1275;75756;-29
2022/03/15 06:24:51;;;;;;;14.70;8.00;;;;;;;1.24;70.08;100392.83;104605;1277;76249;-29
2022/03/15 06:27:21;;;;;;;13.80;8.10;;;;;;;1.20;69.79;100392.23;104590;1274;74378;-29
2022/03/15 06:29:50;;;;;;;11.90;7.70;;;;;;;1.12;69.85;100388.12;104635;1274;61154;-29
2022/03/15 06:32:21;;;;;;;15.50;9.60;;;;;;;1.08;70.02;100383.26;104584;1274;61176;-29
2022/03/15 06:34:51;;;;;;;16.80;9.90;;;;;;;1.10;70.06;100384.91;104629;1274;73572;-29
2022/03/15 06:37:20;;;;;;;15.40;8.90;;;;;;;1.18;70.60;100384.23;104400;1275;74827;-29
2022/03/15 06:39:50;;;;;;;18.60;9.10;;;;;;;1.21;67.86;100378.34;104618;1274;74523;-28
2022/03/15 06:42:20;;;;;;;16.20;9.30;;;;;;;1.40;66.66;100376.21;104638;1277;61073;-29
2022/03/15 06:44:49;;;;;;;19.10;10.20;;;;;;;1.56;66.92;100374.33;104581;1274;61134;-29
2022/03/15 06:47:19;;;;;;;13.20;7.60;;;;;;;1.31;66.71;100371.63;104715;1274;75418;-29
2022/03/15 06:49:48;;;;;;;19.50;11.10;;;;;;;1.42;68.02;100375.32;104636;1274;75181;-29
2022/03/15 06:52:18;;;;;;;18.80;10.70;;;;;;;1.45;65.95;100376.98;104648;1274;74598;-29
2022/03/15 06:54:48;;;;;;;19.70;10.70;;;;;;;1.57;66.58;100379.27;104401;1274;61178;-28
2022/03/15 06:57:18;;;;;;;14.80;9.20;;;;;;;1.57;65.72;100376.71;104662;1274;61922;-28
2022/03/15 06:59:48;;;;;;;22.70;10.10;;;;;;;1.92;64.20;100381.52;104625;1275;75572;-28
2022/03/15 07:02:17;;;;;;;18.00;10.40;;;;;;;2.17;63.58;100380.25;104703;1274;76154;-28
2022/03/15 07:04:47;;;;;;;29.40;10.90;;;;;;;2.26;62.79;100378.30;104624;1274;76116;-29
2022/03/15 07:07:21;;;;;;;15.80;9.20;;;;;;;2.37;63.68;100383.15;104815;1274;61154;-30
2022/03/15 07:09:50;;;;;;;19.90;11.10;;;;;;;2.41;63.54;100384.44;104889;1274;61202;-29
2022/03/15 07:12:38;;;;;;;22.00;10.60;;;;;;;2.46;62.07;100384.97;104730;1274;75666;-29
2022/03/15 07:15:10;;;;;;;19.30;10.40;;;;;;;2.79;61.61;100385.46;104683;1276;76056;-29
2022/03/15 07:17:49;;;;;;;18.60;10.80;;;;;;;3.09;59.74;100389.42;104584;1275;74277;-29
2022/03/15 07:20:18;;;;;;;16.10;9.30;;;;;;;3.34;58.93;100390.58;104448;1274;61092;-29
2022/03/15 07:22:50;;;;;;;21.00;10.40;;;;;;;3.38;58.95;100389.96;104654;1274;61083;-29
2022/03/15 07:25:20;;;;;;;16.20;9.50;;;;;;;3.52;58.03;100395.54;104564;1274;72785;-29
2022/03/15 07:27:51;;;;;;;18.50;10.50;;;;;;;3.50;58.20;100392.34;104286;1274;74645;-29
2022/03/15 07:30:22;;;;;;;15.30;8.10;;;;;;;3.40;57.44;100390.39;104391;1274;70707;-29
2022/03/15 07:32:55;;;;;;;16.50;8.70;;;;;;;3.47;55.49;100390.04;104572;1277;61131;-29
2022/03/15 07:35:25;;;;;;;13.50;8.90;;;;;;;3.56;56.05;100386.65;104564;1276;61148;-29
2022/03/15 07:37:56;;;;;;;15.80;9.20;;;;;;;3.74;54.94;100383.52;104324;1274;72529;-30
2022/03/15 07:40:27;;;;;;;14.80;8.60;;;;;;;3.77;54.80;100381.73;104428;1277;72237;-29
2022/03/15 07:43:00;;;;;;;14.50;8.40;;;;;;;4.00;54.15;100381.66;104479;1274;72759;-29
2022/03/15 07:45:30;;;;;;;;;;;;;;;4.61;52.45;100381.83;104331;1280;61038;-29
2022/03/15 07:48:02;;;;;;;12.90;7.00;;;;;;;4.90;50.79;100383.20;104603;1274;61202;-29
2022/03/15 07:50:34;;;;;;;16.30;7.70;;;;;;;4.85;49.04;100383.23;104596;1275;74046;-30
2022/03/15 07:53:06;;;;;;;12.80;7.30;;;;;;;4.98;50.36;100377.42;104324;1277;73239;-30
2022/03/15 07:55:38;;;;;;;12.00;7.50;;;;;;;5.04;49.73;100376.50;104544;1277;72895;-30
2022/03/15 07:58:12;;;;;;;17.30;9.00;;;;;;;4.82;49.80;100379.39;104532;1274;61022;-28
2022/03/15 08:00:42;;;;;;;12.00;6.70;;;;;;;5.05;49.70;100381.11;104585;1274;61088;-29
2022/03/15 08:03:16;;;;;;;14.50;8.20;;;;;;;5.63;46.88;100378.60;104433;1274;72698;-29
2022/03/15 08:05:46;;;;;;;11.00;6.70;;;;;;;5.98;46.73;100381.17;104622;1274;73015;-28
2022/03/15 08:08:17;;;;;;;11.70;6.40;;;;;;;6.19;45.57;100379.98;104608;1274;72790;-29
2022/03/15 08:10:51;;;;;;;14.50;7.70;;;;;;;6.15;44.39;100382.39;104666;1274;61010;-29
2022/03/15 08:13:23;;;;;;;9.70;6.30;;;;;;;6.13;44.77;100376.96;104669;1277;61146;-29
2022/03/15 08:16:01;;;;;;;13.40;7.10;;;;;;;6.43;44.19;100372.08;104619;1277;74063;-29
2022/03/15 08:18:36;;;;;;;11.20;7.70;;;;;;;6.47;43.44;100365.66;104701;1274;74707;-29
2022/03/15 08:21:08;;;;;;;12.90;7.40;;;;;;;6.87;42.67;100368.42;104656;1277;72939;-29
2022/03/15 08:23:39;;;;;;;14.50;7.60;;;;;;;7.36;41.91;100361.54;104422;1275;61138;-29
2022/03/15 08:26:10;;;;;;;16.20;8.30;;;;;;;7.48;41.75;100362.52;104803;1274;61085;-29
2022/03/15 08:28:45;;;;;;;13.50;8.00;;;;;;;7.36;41.13;100358.23;104458;1274;74372;-29
2022/03/15 08:31:16;;;;;;;10.40;6.10;;;;;;;7.72;40.86;100354.31;104768;1274;74604;-28
2022/03/15 08:33:47;;;;;;;16.30;7.90;;;;;;;8.01;39.08;100348.90;105077;1274;72917;-30
2022/03/15 08:36:19;;;;;;;11.10;6.40;;;;;;;8.07;39.47;100347.04;105088;1274;60944;-29
2022/03/15 08:38:50;;;;;;;14.70;6.80;;;;;;;8.25;38.40;100349.97;104791;1275;61130;-29
2022/03/15 08:41:28;;;;;;;9.60;6.00;;;;;;;8.34;37.04;100348.64;104761;1275;73910;-29
2022/03/15 08:44:02;;;;;;;12.80;7.30;;;;;;;8.47;36.77;100343.86;104734;1275;74298;-29
2022/03/15 08:46:35;;;;;;;10.20;6.60;;;;;;;8.72;38.41;100343.41;104525;1274;71636;-29
2022/03/15 08:49:07;;;;;;;10.00;6.40;;;;;;;9.16;35.66;100338.14;104711;1273;61157;-29
2022/03/15 08:51:41;;;;;;;9.80;5.70;;;;;;;9.38;35.30;100337.28;104771;1274;61160;-29
2022/03/15 08:54:18;;;;;;;8.20;5.60;;;;;;;9.59;35.42;100338.52;104598;1274;72860;-29
2022/03/15 08:56:50;;;;;;;9.90;6.30;;;;;;;9.70;35.01;100332.55;104502;1274;73078;-29
2022/03/15 08:59:25;;;;;;;;;;;;;;;9.32;35.56;100325.11;104561;1277;72885;-29
2022/03/15 09:02:00;;;;;;;10.50;6.20;;;;;;;9.32;34.97;100320.63;104604;1275;61099;-29
2022/03/15 09:04:32;;;;;;;9.80;5.50;;;;;;;9.44;34.27;100321.84;104687;1274;61130;-29
2022/03/15 09:07:05;;;;;;;8.10;5.30;;;;;;;9.78;34.51;100326.73;104653;1274;72987;-30
2022/03/15 09:09:43;;;;;;;9.40;6.10;;;;;;;9.31;34.39;100327.09;104770;1271;73384;-29
2022/03/15 09:12:13;;;;;;;;;;;;;;;9.33;35.11;100327.30;104800;1271;72948;-28
2022/03/15 09:14:48;;;;;;;8.90;5.40;;;;;;;9.53;35.00;100330.55;104947;1271;61150;-29
2022/03/15 09:17:19;;;;;;;10.00;5.70;;;;;;;9.60;34.70;100328.05;104729;1274;61209;-29
2022/03/15 09:19:52;;;;;;;9.20;6.20;;;;;;;9.45;35.51;100326.66;105149;1271;74038;-29
2022/03/15 09:22:24;;;;;;;9.40;5.90;;;;;;;9.09;34.82;100324.31;105196;1270;73317;-28
2022/03/15 09:24:56;;;;;;;9.10;5.70;;;;;;;9.13;35.03;100321.83;104615;1271;70372;-29
2022/03/15 09:27:27;;;;;;;8.00;5.80;;;;;;;9.71;33.82;100323.80;104793;1270;61160;-29
2022/03/15 09:29:58;;;;;;;11.90;6.50;;;;;;;10.10;33.37;100317.73;104944;1270;61120;-29
2022/03/15 09:32:30;;;;;;;8.40;6.20;;;;;;;10.13;32.76;100317.55;104735;1272;72773;-29
2022/03/15 09:35:02;;;;;;;9.50;5.60;;;;;;;9.76;34.19;100310.54;105090;1271;74554;-29
2022/03/15 09:37:32;;;;;;;13.90;7.30;;;;;;;9.23;34.63;100311.41;105157;1271;72920;-29
2022/03/15 09:40:10;;;;;;;10.70;6.50;;;;;;;9.08;35.30;100307.19;105118;1271;61044;-29
2022/03/15 09:42:42;;;;;;;15.90;6.50;;;;;;;9.78;34.41;100305.67;105159;1271;61157;-28
2022/03/15 09:45:12;;;;;;;9.60;6.10;;;;;;;10.34;32.78;100302.80;105046;1271;74031;-29
2022/03/15 09:47:43;;;;;;;9.70;5.70;;;;;;;10.19;32.65;100294.10;105073;1271;74687;-28
2022/03/15 09:50:14;;;;;;;8.60;5.50;;;;;;;10.80;32.08;100292.54;104962;1271;72662;-28
2022/03/15 09:52:44;;;;;;;56.30;7.60;;;;;;;11.15;31.48;100297.29;104769;1271;61144;-28
2022/03/15 09:55:17;;;;;;;11.50;6.80;;;;;;;10.35;31.92;100292.80;104989;1271;61102;-29
2022/03/15 09:57:47;;;;;;;10.30;6.60;;;;;;;10.07;33.36;100297.61;104773;1271;73773;-29
2022/03/15 10:00:19;;;;;;;12.30;7.40;;;;;;;9.91;33.82;100295.21;104697;1271;75740;-29
2022/03/15 10:02:47;;;;;;;10.20;6.60;;;;;;;9.54;33.91;100295.97;104778;1271;74447;-28
2022/03/15 10:05:17;;;;;;;15.60;6.70;;;;;;;10.02;33.17;100295.14;105204;1271;61712;-29
2022/03/15 10:07:46;;;;;;;12.20;7.30;;;;;;;10.53;32.85;100297.30;105129;1271;61786;-29
2022/03/15 10:10:16;;;;;;;9.30;6.20;;;;;;;10.37;32.60;100290.28;104861;1271;74565;-29
2022/03/15 10:12:45;;;;;;;12.90;6.70;;;;;;;10.32;32.75;100292.49;104808;1271;75430;-29
2022/03/15 10:15:21;;;;;;;12.60;7.10;;;;;;;10.29;32.42;100290.91;104649;1271;74143;-29
2022/03/15 10:17:53;;;;;;;10.60;6.30;;;;;;;10.42;31.99;100282.16;104724;1271;61834;-28
2022/03/15 10:20:29;;;;;;;35.00;7.70;;;;;;;10.47;32.44;100278.22;105038;1271;61055;-29
2022/03/15 10:22:59;;;;;;;9.50;6.10;;;;;;;11.12;31.87;100275.77;105120;1271;75551;-29
2022/03/15 10:25:34;;;;;;;9.40;5.60;;;;;;;11.76;31.03;100273.71;104995;1271;76078;-30
2022/03/15 10:28:06;;;;;;;8.50;4.40;;;;;;;12.28;28.70;100272.51;105159;1271;74324;-28
2022/03/15 10:30:36;;;;;;;25.50;7.00;;;;;;;12.44;29.27;100273.30;104830;1271;61210;-28
2022/03/15 10:33:06;;;;;;;7.70;4.70;;;;;;;11.07;29.25;100260.05;105153;1271;62058;-28
2022/03/15 10:35:38;;;;;;;7.20;4.40;;;;;;;10.55;29.31;100259.67;104963;1271;75564;-28
2022/03/15 10:38:08;;;;;;;9.60;5.00;;;;;;;10.74;28.49;100258.84;105141;1271;75968;-28
2022/03/15 10:40:39;;;;;;;6.20;3.90;;;;;;;10.69;28.90;100250.49;105147;1271;74530;-28
2022/03/15 10:43:28;;;;;;;11.80;5.00;;;;;;;10.54;29.25;100250.73;104940;1271;62107;-28
2022/03/15 10:45:57;;;;;;;7.80;4.80;;;;;;;10.67;28.69;100239.17;104758;1272;62052;-28
2022/03/15 10:48:30;;;;;;;9.50;5.30;;;;;;;10.77;29.52;100238.36;104801;1271;76252;-29
2022/03/15 10:51:07;;;;;;;8.50;5.60;;;;;;;10.36;30.86;100233.22;104858;1271;75990;-29
2022/03/15 10:53:45;;;;;;;9.50;5.80;;;;;;;10.49;30.51;100230.72;105144;1271;73146;-29
2022/03/15 10:56:22;;;;;;;8.50;5.70;;;;;;;11.13;28.40;100221.49;105147;1271;61815;-29
2022/03/15 10:58:55;;;;;;;9.90;5.30;;;;;;;11.30;27.48;100222.61;105169;1271;61150;-29
2022/03/15 11:01:25;;;;;;;12.20;5.40;;;;;;;11.05;29.72;100222.70;104828;1271;73885;-29
2022/03/15 11:04:00;;;;;;;10.30;4.90;;;;;;;11.03;28.91;100213.62;104824;1271;74848;-29
2022/03/15 11:06:41;;;;;;;9.30;5.60;;;;;;;11.10;30.47;100210.39;104703;1271;74545;-29
2022/03/15 11:09:26;;;;;;;7.20;4.70;;;;;;;10.57;30.85;100203.13;105160;1271;61150;-28
2022/03/15 11:12:01;;;;;;;10.10;5.70;;;;;;;10.72;30.67;100204.13;105121;1271;62134;-29
2022/03/15 11:14:39;;;;;;;10.00;5.50;;;;;;;10.41;30.46;100195.40;104889;1271;75645;-29
2022/03/15 11:17:12;;;;;;;9.20;5.80;;;;;;;10.85;29.65;100197.91;104913;1271;76176;-29
2022/03/15 11:19:44;;;;;;;9.40;5.20;;;;;;;11.20;29.53;100199.16;104739;1271;74593;-29
2022/03/15 11:22:15;;;;;;;8.40;5.90;;;;;;;10.91;30.37;100191.23;104954;1270;61995;-29
2022/03/15 11:24:49;;;;;;;10.10;4.70;;;;;;;10.37;30.87;100194.82;104910;1271;61013;-30
2022/03/15 11:27:21;;;;;;;11.80;6.00;;;;;;;10.70;31.14;100193.85;104793;1271;75520;-30
2022/03/15 11:29:52;;;;;;;9.50;5.50;;;;;;;10.58;28.72;100186.42;104947;1271;75148;-29
2022/03/15 11:32:21;;;;;;;8.70;5.70;;;;;;;10.88;29.79;100178.45;104944;1271;74431;-29
2022/03/15 11:34:50;;;;;;;9.50;5.80;;;;;;;11.21;29.96;100175.09;104775;1271;61083;-30
2022/03/15 11:37:19;;;;;;;11.00;4.40;;;;;;;11.02;30.65;100170.77;105260;1271;62035;-29